sensor_id;sensor_type;location;lat;lon;timestamp;pressure;altitude;pressure_sealevel;temperature;humidity
26697;BME280;14312;52.614;13.496;2023-08-17T00:00:07;101422.03;;;23.21;57.06
26697;BME280;14312;52.614;13.496;2023-08-17T00:02:59;101431.88;;;23.17;57.01
26697;BME280;14312;52.614;13.496;2023-08-17T00:05:45;101434.94;;;23.16;57.01
26697;BME280;14312;52.614;13.496;2023-08-17T00:08:30;101433.31;;;23.15;57.27
26697;BME280;14312;52.614;13.496;2023-08-17T00:11:17;101426.84;;;23.11;57.30
26697;BME280;14312;52.614;13.496;2023-08-17T00:14:03;101427.16;;;23.09;57.39
26697;BME280;14312;52.614;13.496;2023-08-17T00:16:49;101419.31;;;23.08;57.36
26697;BME280;14312;52.614;13.496;2023-08-17T00:19:35;101415.59;;;23.03;57.39
26697;BME280;14312;52.614;13.496;2023-08-17T00:22:21;101401.50;;;23.01;57.35
26697;BME280;14312;52.614;13.496;2023-08-17T00:25:08;101393.66;;;23.00;57.51
26697;BME280;14312;52.614;13.496;2023-08-17T00:27:54;101389.13;;;22.95;57.60
26697;BME280;14312;52.614;13.496;2023-08-17T00:30:39;101386.41;;;22.95;57.64
26697;BME280;14312;52.614;13.496;2023-08-17T00:33:25;101384.00;;;22.94;57.47
26697;BME280;14312;52.614;13.496;2023-08-17T00:36:11;101379.47;;;22.89;57.69
26697;BME280;14312;52.614;13.496;2023-08-17T00:38:57;101373.53;;;22.87;57.60
26697;BME280;14312;52.614;13.496;2023-08-17T00:41:43;101382.28;;;22.84;57.55
26697;BME280;14312;52.614;13.496;2023-08-17T00:44:29;101385.59;;;22.81;57.73
26697;BME280;14312;52.614;13.496;2023-08-17T00:47:14;101384.63;;;22.77;57.88
26697;BME280;14312;52.614;13.496;2023-08-17T00:50:01;101378.19;;;22.73;57.92
26697;BME280;14312;52.614;13.496;2023-08-17T00:52:47;101377.13;;;22.69;57.92
26697;BME280;14312;52.614;13.496;2023-08-17T00:55:33;101384.78;;;22.67;58.01
26697;BME280;14312;52.614;13.496;2023-08-17T00:58:20;101372.31;;;22.66;58.24
26697;BME280;14312;52.614;13.496;2023-08-17T01:01:06;101386.22;;;22.64;58.21
26697;BME280;14312;52.614;13.496;2023-08-17T01:03:53;101397.38;;;22.63;58.28
26697;BME280;14312;52.614;13.496;2023-08-17T01:06:39;101403.91;;;22.62;58.30
26697;BME280;14312;52.614;13.496;2023-08-17T01:09:25;101396.38;;;22.59;58.23
26697;BME280;14312;52.614;13.496;2023-08-17T01:15:16;101390.22;;;22.53;58.85
26697;BME280;14312;52.614;13.496;2023-08-17T01:18:23;101402.50;;;22.51;59.29
26697;BME280;14312;52.614;13.496;2023-08-17T01:21:10;101399.06;;;22.45;58.45
26697;BME280;14312;52.614;13.496;2023-08-17T01:24:03;101388.81;;;22.42;59.00
26697;BME280;14312;52.614;13.496;2023-08-17T01:26:49;101395.16;;;22.38;58.81
26697;BME280;14312;52.614;13.496;2023-08-17T01:29:35;101394.63;;;22.36;58.82
26697;BME280;14312;52.614;13.496;2023-08-17T01:32:28;101390.31;;;22.35;59.46
26697;BME280;14312;52.614;13.496;2023-08-17T01:35:44;101379.75;;;22.33;59.72
26697;BME280;14312;52.614;13.496;2023-08-17T01:38:32;101372.50;;;22.29;58.91
26697;BME280;14312;52.614;13.496;2023-08-17T01:41:20;101371.69;;;22.28;59.09
26697;BME280;14312;52.614;13.496;2023-08-17T01:44:06;101376.91;;;22.24;59.05
26697;BME280;14312;52.614;13.496;2023-08-17T01:46:52;101378.31;;;22.22;59.15
26697;BME280;14312;52.614;13.496;2023-08-17T01:49:39;101388.97;;;22.18;59.03
26697;BME280;14312;52.614;13.496;2023-08-17T01:52:27;101385.16;;;22.19;59.37
26697;BME280;14312;52.614;13.496;2023-08-17T01:55:13;101386.53;;;22.17;59.37
26697;BME280;14312;52.614;13.496;2023-08-17T01:57:59;101384.16;;;22.15;59.28
26697;BME280;14312;52.614;13.496;2023-08-17T02:00:45;101391.78;;;22.13;59.37
26697;BME280;14312;52.614;13.496;2023-08-17T02:03:31;101390.16;;;22.12;59.25
26697;BME280;14312;52.614;13.496;2023-08-17T02:06:17;101398.94;;;22.09;59.36
26697;BME280;14312;52.614;13.496;2023-08-17T02:09:03;101408.47;;;22.07;59.30
26697;BME280;14312;52.614;13.496;2023-08-17T02:11:49;101410.38;;;22.06;59.51
26697;BME280;14312;52.614;13.496;2023-08-17T02:14:35;101401.41;;;22.06;59.26
26697;BME280;14312;52.614;13.496;2023-08-17T02:17:21;101401.72;;;22.04;59.56
26697;BME280;14312;52.614;13.496;2023-08-17T02:20:08;101397.38;;;22.03;59.62
26697;BME280;14312;52.614;13.496;2023-08-17T02:22:54;101394.97;;;22.02;59.43
26697;BME280;14312;52.614;13.496;2023-08-17T02:25:40;101396.38;;;21.99;59.57
26697;BME280;14312;52.614;13.496;2023-08-17T02:28:26;101386.31;;;22.00;59.39
26697;BME280;14312;52.614;13.496;2023-08-17T02:31:12;101394.75;;;21.98;59.50
26697;BME280;14312;52.614;13.496;2023-08-17T02:33:58;101395.34;;;21.95;59.46
26697;BME280;14312;52.614;13.496;2023-08-17T02:36:46;101391.00;;;21.94;59.46
26697;BME280;14312;52.614;13.496;2023-08-17T02:39:32;101402.16;;;21.93;59.43
26697;BME280;14312;52.614;13.496;2023-08-17T02:42:18;101394.31;;;21.91;59.35
26697;BME280;14312;52.614;13.496;2023-08-17T02:45:04;101397.00;;;21.91;59.52
26697;BME280;14312;52.614;13.496;2023-08-17T02:47:50;101380.22;;;21.89;59.32
26697;BME280;14312;52.614;13.496;2023-08-17T02:50:35;101380.22;;;21.89;59.42
26697;BME280;14312;52.614;13.496;2023-08-17T02:53:21;101370.47;;;21.88;59.26
26697;BME280;14312;52.614;13.496;2023-08-17T02:56:07;101370.78;;;21.86;59.20
26697;BME280;14312;52.614;13.496;2023-08-17T02:58:57;101378.41;;;21.84;59.09
26697;BME280;14312;52.614;13.496;2023-08-17T03:01:45;101365.13;;;21.83;59.26
26697;BME280;14312;52.614;13.496;2023-08-17T03:04:31;101372.78;;;21.81;59.01
26697;BME280;14312;52.614;13.496;2023-08-17T03:07:17;101368.75;;;21.78;58.97
26697;BME280;14312;52.614;13.496;2023-08-17T03:10:03;101371.75;;;21.77;59.11
26697;BME280;14312;52.614;13.496;2023-08-17T03:12:49;101370.13;;;21.76;58.97
26697;BME280;14312;52.614;13.496;2023-08-17T03:15:35;101370.72;;;21.73;59.06
26697;BME280;14312;52.614;13.496;2023-08-17T03:18:25;101363.69;;;21.72;58.78
26697;BME280;14312;52.614;13.496;2023-08-17T03:21:11;101371.31;;;21.70;58.69
26697;BME280;14312;52.614;13.496;2023-08-17T03:23:57;101370.78;;;21.68;58.86
26697;BME280;14312;52.614;13.496;2023-08-17T03:26:43;101367.59;;;21.66;58.71
26697;BME280;14312;52.614;13.496;2023-08-17T03:29:29;101361.66;;;21.64;58.65
26697;BME280;14312;52.614;13.496;2023-08-17T03:32:15;101365.47;;;21.63;58.73
26697;BME280;14312;52.614;13.496;2023-08-17T03:35:01;101362.22;;;21.61;58.48
26697;BME280;14312;52.614;13.496;2023-08-17T03:37:47;101361.41;;;21.60;58.47
26697;BME280;14312;52.614;13.496;2023-08-17T03:40:33;101360.66;;;21.60;58.42
26697;BME280;14312;52.614;13.496;2023-08-17T03:43:19;101355.50;;;21.58;58.62
26697;BME280;14312;52.614;13.496;2023-08-17T03:46:05;101355.78;;;21.57;58.56
26697;BME280;14312;52.614;13.496;2023-08-17T03:48:51;101364.75;;;21.57;58.44
26697;BME280;14312;52.614;13.496;2023-08-17T03:51:37;101363.66;;;21.58;58.43
26697;BME280;14312;52.614;13.496;2023-08-17T03:54:23;101365.56;;;21.58;58.26
26697;BME280;14312;52.614;13.496;2023-08-17T03:57:09;101357.41;;;21.58;58.47
26697;BME280;14312;52.614;13.496;2023-08-17T03:59:55;101362.03;;;21.57;58.24
26697;BME280;14312;52.614;13.496;2023-08-17T04:02:40;101365.03;;;21.56;58.57
26697;BME280;14312;52.614;13.496;2023-08-17T04:05:27;101363.94;;;21.57;58.29
26697;BME280;14312;52.614;13.496;2023-08-17T04:08:13;101355.78;;;21.57;58.44
26697;BME280;14312;52.614;13.496;2023-08-17T04:10:59;101352.78;;;21.58;58.25
26697;BME280;14312;52.614;13.496;2023-08-17T04:13:45;101345.94;;;21.61;58.51
26697;BME280;14312;52.614;13.496;2023-08-17T04:16:31;101343.56;;;21.59;58.57
26697;BME280;14312;52.614;13.496;2023-08-17T04:19:17;101339.13;;;21.63;58.51
26697;BME280;14312;52.614;13.496;2023-08-17T04:22:03;101337.75;;;21.66;58.43
26697;BME280;14312;52.614;13.496;2023-08-17T04:24:49;101332.53;;;21.69;58.54
26697;BME280;14312;52.614;13.496;2023-08-17T04:27:35;101329.53;;;21.71;58.42
26697;BME280;14312;52.614;13.496;2023-08-17T04:30:21;101334.38;;;21.74;58.56
26697;BME280;14312;52.614;13.496;2023-08-17T04:33:07;101332.94;;;21.76;58.58
26697;BME280;14312;52.614;13.496;2023-08-17T04:35:53;101333.16;;;21.80;58.50
26697;BME280;14312;52.614;13.496;2023-08-17T04:38:39;101341.50;;;21.83;58.63
26697;BME280;14312;52.614;13.496;2023-08-17T04:41:25;101339.03;;;21.87;58.47
26697;BME280;14312;52.614;13.496;2023-08-17T04:44:11;101340.81;;;21.92;58.47
26697;BME280;14312;52.614;13.496;2023-08-17T04:46:57;101326.38;;;21.96;58.62
26697;BME280;14312;52.614;13.496;2023-08-17T04:49:43;101334.47;;;22.01;58.54
26697;BME280;14312;52.614;13.496;2023-08-17T04:52:29;101335.44;;;22.05;58.60
26697;BME280;14312;52.614;13.496;2023-08-17T04:55:15;101334.25;;;22.11;58.62
26697;BME280;14312;52.614;13.496;2023-08-17T04:58:01;101345.53;;;22.18;58.64
26697;BME280;14312;52.614;13.496;2023-08-17T05:00:47;101338.88;;;22.24;58.55
26697;BME280;14312;52.614;13.496;2023-08-17T05:03:33;101335.00;;;22.31;58.45
26697;BME280;14312;52.614;13.496;2023-08-17T05:06:19;101331.06;;;22.37;58.23
26697;BME280;14312;52.614;13.496;2023-08-17T05:09:05;101340.72;;;22.43;58.25
26697;BME280;14312;52.614;13.496;2023-08-17T05:11:52;101335.69;;;22.50;58.23
26697;BME280;14312;52.614;13.496;2023-08-17T05:14:38;101339.91;;;22.56;58.36
26697;BME280;14312;52.614;13.496;2023-08-17T05:17:24;101351.19;;;22.63;58.00
26697;BME280;14312;52.614;13.496;2023-08-17T05:20:10;101353.78;;;22.68;58.06
26697;BME280;14312;52.614;13.496;2023-08-17T05:22:58;101359.66;;;22.75;57.89
26697;BME280;14312;52.614;13.496;2023-08-17T05:25:47;101354.00;;;22.85;57.93
26697;BME280;14312;52.614;13.496;2023-08-17T05:28:33;101348.75;;;22.89;57.96
26697;BME280;14312;52.614;13.496;2023-08-17T05:31:19;101359.22;;;22.95;57.86
26697;BME280;14312;52.614;13.496;2023-08-17T05:34:05;101358.78;;;23.02;57.80
26697;BME280;14312;52.614;13.496;2023-08-17T05:36:51;101358.41;;;23.09;57.66
26697;BME280;14312;52.614;13.496;2023-08-17T05:39:37;101361.81;;;23.14;57.36
26697;BME280;14312;52.614;13.496;2023-08-17T05:42:23;101350.00;;;23.19;57.54
26697;BME280;14312;52.614;13.496;2023-08-17T05:45:09;101348.47;;;23.26;57.37
26697;BME280;14312;52.614;13.496;2023-08-17T05:47:55;101348.03;;;23.33;57.20
26697;BME280;14312;52.614;13.496;2023-08-17T05:50:41;101347.91;;;23.38;57.20
26697;BME280;14312;52.614;13.496;2023-08-17T05:53:27;101353.25;;;23.43;57.13
26697;BME280;14312;52.614;13.496;2023-08-17T05:56:13;101349.63;;;23.48;57.18
26697;BME280;14312;52.614;13.496;2023-08-17T05:58:59;101347.56;;;23.53;56.72
26697;BME280;14312;52.614;13.496;2023-08-17T06:01:45;101355.63;;;23.58;57.14
26697;BME280;14312;52.614;13.496;2023-08-17T06:04:29;101355.00;;;23.61;56.97
26697;BME280;14312;52.614;13.496;2023-08-17T06:07:15;101348.31;;;23.67;57.01
26697;BME280;14312;52.614;13.496;2023-08-17T06:10:04;101362.28;;;23.74;56.89
26697;BME280;14312;52.614;13.496;2023-08-17T06:12:55;101360.56;;;23.78;56.73
26697;BME280;14312;52.614;13.496;2023-08-17T06:15:41;101384.94;;;23.84;56.70
26697;BME280;14312;52.614;13.496;2023-08-17T06:18:29;101390.75;;;23.91;56.79
26697;BME280;14312;52.614;13.496;2023-08-17T06:21:15;101403.94;;;23.97;56.90
26697;BME280;14312;52.614;13.496;2023-08-17T06:24:01;101420.50;;;24.09;56.59
26697;BME280;14312;52.614;13.496;2023-08-17T06:26:47;101440.44;;;24.18;56.03
26697;BME280;14312;52.614;13.496;2023-08-17T06:29:33;101442.22;;;24.23;55.40
26697;BME280;14312;52.614;13.496;2023-08-17T06:32:19;101440.66;;;24.22;55.47
26697;BME280;14312;52.614;13.496;2023-08-17T06:35:06;101424.31;;;24.22;55.48
26697;BME280;14312;52.614;13.496;2023-08-17T06:37:52;101414.00;;;24.19;55.58
26697;BME280;14312;52.614;13.496;2023-08-17T06:40:41;101406.34;;;24.21;55.80
26697;BME280;14312;52.614;13.496;2023-08-17T06:43:27;101422.06;;;24.24;56.08
26697;BME280;14312;52.614;13.496;2023-08-17T06:46:13;101424.66;;;24.29;56.26
26697;BME280;14312;52.614;13.496;2023-08-17T06:48:59;101414.72;;;24.33;56.10
26697;BME280;14312;52.614;13.496;2023-08-17T06:51:45;101405.81;;;24.41;56.29
26697;BME280;14312;52.614;13.496;2023-08-17T06:54:31;101410.97;;;24.51;56.73
26697;BME280;14312;52.614;13.496;2023-08-17T06:57:18;101412.47;;;24.66;56.40
26697;BME280;14312;52.614;13.496;2023-08-17T07:00:04;101403.84;;;24.81;55.47
26697;BME280;14312;52.614;13.496;2023-08-17T07:02:51;101395.56;;;24.95;55.36
26697;BME280;14312;52.614;13.496;2023-08-17T07:05:37;101400.09;;;25.08;55.41
26697;BME280;14312;52.614;13.496;2023-08-17T07:08:23;101392.09;;;25.20;55.15
26697;BME280;14312;52.614;13.496;2023-08-17T07:11:09;101393.88;;;25.33;55.15
26697;BME280;14312;52.614;13.496;2023-08-17T07:13:55;101390.66;;;25.49;55.69
26697;BME280;14312;52.614;13.496;2023-08-17T07:16:41;101389.53;;;25.67;55.43
26697;BME280;14312;52.614;13.496;2023-08-17T07:19:27;101394.50;;;25.82;54.99
26697;BME280;14312;52.614;13.496;2023-08-17T07:22:12;101389.66;;;25.96;54.93
26697;BME280;14312;52.614;13.496;2023-08-17T07:24:58;101396.53;;;26.11;54.77
26697;BME280;14312;52.614;13.496;2023-08-17T07:27:44;101398.59;;;26.23;54.48
26697;BME280;14312;52.614;13.496;2023-08-17T07:30:30;101398.28;;;26.33;54.57
26697;BME280;14312;52.614;13.496;2023-08-17T07:33:16;101397.13;;;26.42;53.91
26697;BME280;14312;52.614;13.496;2023-08-17T07:36:02;101405.13;;;26.47;53.82
26697;BME280;14312;52.614;13.496;2023-08-17T07:38:48;101403.00;;;26.53;54.16
26697;BME280;14312;52.614;13.496;2023-08-17T07:41:34;101400.88;;;26.59;53.86
26697;BME280;14312;52.614;13.496;2023-08-17T07:44:20;101404.25;;;26.64;53.79
26697;BME280;14312;52.614;13.496;2023-08-17T07:47:06;101399.06;;;26.71;53.91
26697;BME280;14312;52.614;13.496;2023-08-17T07:49:52;101389.88;;;26.76;53.49
26697;BME280;14312;52.614;13.496;2023-08-17T07:52:38;101400.28;;;26.82;53.73
26697;BME280;14312;52.614;13.496;2023-08-17T07:55:26;101401.41;;;26.90;53.58
26697;BME280;14312;52.614;13.496;2023-08-17T07:58:12;101390.13;;;26.92;53.10
26697;BME280;14312;52.614;13.496;2023-08-17T08:00:58;101390.59;;;26.94;52.93
26697;BME280;14312;52.614;13.496;2023-08-17T08:03:43;101389.94;;;26.97;52.82
26697;BME280;14312;52.614;13.496;2023-08-17T08:06:29;101388.81;;;26.98;53.12
26697;BME280;14312;52.614;13.496;2023-08-17T08:09:15;101393.16;;;26.99;52.71
26697;BME280;14312;52.614;13.496;2023-08-17T08:12:02;101387.00;;;27.02;52.74
26697;BME280;14312;52.614;13.496;2023-08-17T08:14:48;101380.88;;;27.05;53.05
26697;BME280;14312;52.614;13.496;2023-08-17T08:17:34;101374.28;;;27.06;52.97
26697;BME280;14312;52.614;13.496;2023-08-17T08:20:21;101377.94;;;27.10;52.92
26697;BME280;14312;52.614;13.496;2023-08-17T08:23:07;101371.81;;;27.13;52.80
26697;BME280;14312;52.614;13.496;2023-08-17T08:25:53;101371.13;;;27.16;52.95
26697;BME280;14312;52.614;13.496;2023-08-17T08:28:39;101376.41;;;27.21;52.86
26697;BME280;14312;52.614;13.496;2023-08-17T08:31:25;101369.13;;;27.25;52.72
26697;BME280;14312;52.614;13.496;2023-08-17T08:34:11;101364.25;;;27.31;53.00
26697;BME280;14312;52.614;13.496;2023-08-17T08:36:57;101363.69;;;27.37;53.07
26697;BME280;14312;52.614;13.496;2023-08-17T08:39:53;101357.81;;;27.47;52.50
26697;BME280;14312;52.614;13.496;2023-08-17T08:42:40;101345.03;;;27.51;52.75
26697;BME280;14312;52.614;13.496;2023-08-17T08:45:27;101339.06;;;27.58;52.77
26697;BME280;14312;52.614;13.496;2023-08-17T08:48:13;101340.00;;;27.62;52.62
26697;BME280;14312;52.614;13.496;2023-08-17T08:51:00;101345.59;;;27.65;52.50
26697;BME280;14312;52.614;13.496;2023-08-17T08:53:49;101344.59;;;27.70;52.51
26697;BME280;14312;52.614;13.496;2023-08-17T08:56:42;101341.97;;;27.74;52.77
26697;BME280;14312;52.614;13.496;2023-08-17T08:59:29;101334.69;;;27.78;52.90
26697;BME280;14312;52.614;13.496;2023-08-17T09:02:16;101332.19;;;27.85;52.91
26697;BME280;14312;52.614;13.496;2023-08-17T09:05:04;101331.97;;;27.90;52.79
26697;BME280;14312;52.614;13.496;2023-08-17T09:07:52;101327.84;;;27.96;52.91
26697;BME280;14312;52.614;13.496;2023-08-17T09:10:38;101330.25;;;27.97;52.51
26697;BME280;14312;52.614;13.496;2023-08-17T09:13:24;101319.41;;;28.01;52.17
26697;BME280;14312;52.614;13.496;2023-08-17T09:16:10;101306.41;;;27.98;52.02
26697;BME280;14312;52.614;13.496;2023-08-17T09:18:56;101303.44;;;27.91;52.23
26697;BME280;14312;52.614;13.496;2023-08-17T09:21:42;101298.63;;;27.88;52.34
26697;BME280;14312;52.614;13.496;2023-08-17T09:24:35;101293.03;;;27.84;51.97
26697;BME280;14312;52.614;13.496;2023-08-17T09:27:22;101290.38;;;27.76;52.26
26697;BME280;14312;52.614;13.496;2023-08-17T09:30:11;101292.19;;;27.72;52.04
26697;BME280;14312;52.614;13.496;2023-08-17T09:33:02;101296.97;;;27.62;51.91
26697;BME280;14312;52.614;13.496;2023-08-17T09:35:49;101303.53;;;27.49;51.95
26697;BME280;14312;52.614;13.496;2023-08-17T09:38:36;101308.63;;;27.39;52.15
26697;BME280;14312;52.614;13.496;2023-08-17T09:41:23;101303.44;;;27.25;52.33
26697;BME280;14312;52.614;13.496;2023-08-17T09:44:11;101301.56;;;27.17;52.77
26697;BME280;14312;52.614;13.496;2023-08-17T09:46:57;101312.25;;;27.10;53.17
26697;BME280;14312;52.614;13.496;2023-08-17T09:49:53;101307.91;;;27.09;54.29
26697;BME280;14312;52.614;13.496;2023-08-17T09:52:39;101304.03;;;27.10;54.29
26697;BME280;14312;52.614;13.496;2023-08-17T09:55:25;101305.44;;;27.16;54.27
26697;BME280;14312;52.614;13.496;2023-08-17T09:58:12;101306.16;;;27.25;54.15
26697;BME280;14312;52.614;13.496;2023-08-17T10:01:04;101306.22;;;27.37;54.63
26697;BME280;14312;52.614;13.496;2023-08-17T10:03:51;101296.44;;;27.48;54.60
26697;BME280;14312;52.614;13.496;2023-08-17T10:06:41;101302.91;;;27.64;54.57
26697;BME280;14312;52.614;13.496;2023-08-17T10:09:31;101292.09;;;27.80;54.76
26697;BME280;14312;52.614;13.496;2023-08-17T10:12:23;101306.84;;;28.00;54.43
26697;BME280;14312;52.614;13.496;2023-08-17T10:15:13;101305.06;;;28.16;53.85
26697;BME280;14312;52.614;13.496;2023-08-17T10:18:19;101295.34;;;28.31;53.47
26697;BME280;14312;52.614;13.496;2023-08-17T10:21:13;101288.16;;;28.38;53.24
26697;BME280;14312;52.614;13.496;2023-08-17T10:24:04;101283.34;;;28.48;53.90
26697;BME280;14312;52.614;13.496;2023-08-17T10:26:51;101278.31;;;28.62;53.35
26697;BME280;14312;52.614;13.496;2023-08-17T10:29:38;101283.28;;;28.72;52.90
26697;BME280;14312;52.614;13.496;2023-08-17T10:32:24;101288.94;;;28.75;52.62
26697;BME280;14312;52.614;13.496;2023-08-17T10:35:11;101288.13;;;28.75;52.36
26697;BME280;14312;52.614;13.496;2023-08-17T10:37:57;101288.13;;;28.75;52.24
26697;BME280;14312;52.614;13.496;2023-08-17T10:40:44;101290.28;;;28.69;52.40
26697;BME280;14312;52.614;13.496;2023-08-17T10:43:33;101293.38;;;28.68;52.05
26697;BME280;14312;52.614;13.496;2023-08-17T10:46:19;101295.09;;;28.60;51.92
26697;BME280;14312;52.614;13.496;2023-08-17T10:49:07;101291.81;;;28.55;52.01
26697;BME280;14312;52.614;13.496;2023-08-17T10:52:09;101280.94;;;28.46;51.88
26697;BME280;14312;52.614;13.496;2023-08-17T10:54:56;101284.75;;;28.41;52.16
26697;BME280;14312;52.614;13.496;2023-08-17T10:57:43;101283.81;;;28.37;52.24
26697;BME280;14312;52.614;13.496;2023-08-17T11:00:36;101275.25;;;28.39;52.29
26697;BME280;14312;52.614;13.496;2023-08-17T11:03:22;101272.59;;;28.42;52.39
26697;BME280;14312;52.614;13.496;2023-08-17T11:06:18;101276.47;;;28.54;52.70
26697;BME280;14312;52.614;13.496;2023-08-17T11:09:07;101276.91;;;28.68;53.09
26697;BME280;14312;52.614;13.496;2023-08-17T11:11:53;101274.38;;;28.87;53.34
26697;BME280;14312;52.614;13.496;2023-08-17T11:14:44;101263.50;;;29.18;52.88
26697;BME280;14312;52.614;13.496;2023-08-17T11:17:30;101270.94;;;29.46;52.64
26697;BME280;14312;52.614;13.496;2023-08-17T11:20:16;101268.94;;;29.74;52.17
26697;BME280;14312;52.614;13.496;2023-08-17T11:23:03;101278.28;;;30.01;51.88
26697;BME280;14312;52.614;13.496;2023-08-17T11:25:51;101277.00;;;30.30;51.73
26697;BME280;14312;52.614;13.496;2023-08-17T11:28:37;101274.22;;;30.61;51.22
26697;BME280;14312;52.614;13.496;2023-08-17T11:31:25;101248.13;;;30.94;50.85
26697;BME280;14312;52.614;13.496;2023-08-17T11:34:14;101256.69;;;31.27;50.32
26697;BME280;14312;52.614;13.496;2023-08-17T11:37:00;101253.28;;;31.57;50.19
26697;BME280;14312;52.614;13.496;2023-08-17T11:39:46;101256.97;;;31.87;49.95
26697;BME280;14312;52.614;13.496;2023-08-17T11:42:32;101252.78;;;32.19;49.12
26697;BME280;14312;52.614;13.496;2023-08-17T11:45:18;101256.38;;;32.50;48.94
26697;BME280;14312;52.614;13.496;2023-08-17T11:48:05;101256.78;;;32.78;48.12
26697;BME280;14312;52.614;13.496;2023-08-17T11:50:52;101256.19;;;32.95;47.22
26697;BME280;14312;52.614;13.496;2023-08-17T11:53:38;101255.44;;;32.98;46.48
26697;BME280;14312;52.614;13.496;2023-08-17T11:56:24;101250.59;;;32.88;46.55
26697;BME280;14312;52.614;13.496;2023-08-17T11:59:11;101260.59;;;32.70;46.21
26697;BME280;14312;52.614;13.496;2023-08-17T12:02:00;101254.88;;;32.56;46.72
26697;BME280;14312;52.614;13.496;2023-08-17T12:04:46;101263.28;;;32.37;47.09
26697;BME280;14312;52.614;13.496;2023-08-17T12:07:32;101260.75;;;32.24;47.00
26697;BME280;14312;52.614;13.496;2023-08-17T12:10:19;101262.88;;;32.12;46.96
26697;BME280;14312;52.614;13.496;2023-08-17T12:13:05;101250.53;;;32.02;47.84
26697;BME280;14312;52.614;13.496;2023-08-17T12:15:51;101253.91;;;31.92;47.73
26697;BME280;14312;52.614;13.496;2023-08-17T12:18:37;101252.59;;;31.82;47.71
26697;BME280;14312;52.614;13.496;2023-08-17T12:21:23;101251.97;;;31.70;47.71
26697;BME280;14312;52.614;13.496;2023-08-17T12:24:09;101243.00;;;31.54;47.69
26697;BME280;14312;52.614;13.496;2023-08-17T12:27:01;101245.88;;;31.38;47.52
26697;BME280;14312;52.614;13.496;2023-08-17T12:29:51;101244.81;;;31.23;48.41
26697;BME280;14312;52.614;13.496;2023-08-17T12:32:37;101233.97;;;31.11;47.91
26697;BME280;14312;52.614;13.496;2023-08-17T12:35:24;101236.53;;;31.04;48.32
26697;BME280;14312;52.614;13.496;2023-08-17T12:38:10;101233.66;;;30.97;48.84
26697;BME280;14312;52.614;13.496;2023-08-17T12:40:57;101235.97;;;30.95;49.20
26697;BME280;14312;52.614;13.496;2023-08-17T12:43:43;101235.97;;;30.95;49.20
26697;BME280;14312;52.614;13.496;2023-08-17T12:46:29;101237.25;;;31.01;49.82
26697;BME280;14312;52.614;13.496;2023-08-17T12:49:18;101230.47;;;31.14;50.08
26697;BME280;14312;52.614;13.496;2023-08-17T12:52:04;101219.56;;;31.40;49.62
26697;BME280;14312;52.614;13.496;2023-08-17T12:54:50;101222.38;;;31.67;49.72
26697;BME280;14312;52.614;13.496;2023-08-17T12:57:36;101222.28;;;31.86;48.69
26697;BME280;14312;52.614;13.496;2023-08-17T13:00:22;101225.59;;;31.95;48.47
26697;BME280;14312;52.614;13.496;2023-08-17T13:03:08;101217.88;;;32.04;48.33
26697;BME280;14312;52.614;13.496;2023-08-17T13:05:54;101216.50;;;32.17;48.27
26697;BME280;14312;52.614;13.496;2023-08-17T13:08:40;101214.69;;;32.28;47.98
26697;BME280;14312;52.614;13.496;2023-08-17T13:11:26;101215.22;;;32.38;47.93
26697;BME280;14312;52.614;13.496;2023-08-17T13:14:15;101215.41;;;32.52;48.11
26697;BME280;14312;52.614;13.496;2023-08-17T13:17:01;101203.00;;;32.69;48.18
26697;BME280;14312;52.614;13.496;2023-08-17T13:19:47;101204.88;;;32.94;48.18
26697;BME280;14312;52.614;13.496;2023-08-17T13:22:33;101214.75;;;33.29;47.76
26697;BME280;14312;52.614;13.496;2023-08-17T13:25:19;101201.59;;;33.59;47.12
26697;BME280;14312;52.614;13.496;2023-08-17T13:28:05;101209.78;;;33.93;46.88
26697;BME280;14312;52.614;13.496;2023-08-17T13:30:51;101198.94;;;34.28;46.54
26697;BME280;14312;52.614;13.496;2023-08-17T13:33:37;101195.94;;;34.65;46.12
26697;BME280;14312;52.614;13.496;2023-08-17T13:36:23;101186.56;;;34.98;45.68
26697;BME280;14312;52.614;13.496;2023-08-17T13:39:09;101189.81;;;35.28;44.58
26697;BME280;14312;52.614;13.496;2023-08-17T13:41:55;101200.09;;;35.53;43.93
26697;BME280;14312;52.614;13.496;2023-08-17T13:44:41;101189.84;;;35.71;43.63
26697;BME280;14312;52.614;13.496;2023-08-17T13:47:27;101184.25;;;35.92;43.58
26697;BME280;14312;52.614;13.496;2023-08-17T13:50:13;101192.53;;;36.14;43.47
26697;BME280;14312;52.614;13.496;2023-08-17T13:52:59;101184.94;;;36.35;43.23
26697;BME280;14312;52.614;13.496;2023-08-17T13:55:46;101186.84;;;36.53;42.46
26697;BME280;14312;52.614;13.496;2023-08-17T13:58:32;101173.66;;;36.74;42.48
26697;BME280;14312;52.614;13.496;2023-08-17T14:01:18;101183.47;;;37.00;41.72
26697;BME280;14312;52.614;13.496;2023-08-17T14:04:05;101178.13;;;37.27;41.06
26697;BME280;14312;52.614;13.496;2023-08-17T14:06:56;101174.03;;;37.42;41.15
26697;BME280;14312;52.614;13.496;2023-08-17T14:09:42;101170.34;;;37.52;40.57
26697;BME280;14312;52.614;13.496;2023-08-17T14:12:28;101180.69;;;37.52;39.77
26697;BME280;14312;52.614;13.496;2023-08-17T14:15:14;101173.63;;;37.40;39.29
26697;BME280;14312;52.614;13.496;2023-08-17T14:18:00;101169.84;;;37.20;39.44
26697;BME280;14312;52.614;13.496;2023-08-17T14:20:46;101162.41;;;36.96;39.94
26697;BME280;14312;52.614;13.496;2023-08-17T14:23:32;101154.22;;;36.74;40.07